Time;durP1;ratioP1;P1;durP2;ratioP2;P2;SDS_P1;SDS_P2;PMS_P1;PMS_P2;Temp;Humidity;BMP_temperature;BMP_pressure;BME280_temperature;BME280_humidity;BME280_pressure;Samples;Min_cycle;Max_cycle;Signal;HPM_P1;HPM_P2
2022/06/12 00:00:33;;;;;;;10.97;3.63;;;;;;;13.02;80.65;102160.78;5042678;28;20040;-82
2022/06/12 00:03:01;;;;;;;7.70;3.30;;;;;;;12.92;81.62;102144.75;5042591;28;20036;-81
2022/06/12 00:05:31;;;;;;;10.07;3.47;;;;;;;12.99;81.99;102164.72;5041350;28;20556;-81
2022/06/12 00:07:56;;;;;;;10.10;3.83;;;;;;;12.89;82.47;102159.63;5042075;28;20153;-81
2022/06/12 00:10:22;;;;;;;8.33;3.33;;;;;;;12.94;82.26;102151.69;5042888;28;20044;-81
2022/06/12 00:12:48;;;;;;;8.27;3.70;;;;;;;12.86;82.42;102157.28;5024309;28;20037;-81
2022/06/12 00:15:16;;;;;;;6.90;3.40;;;;;;;12.83;82.42;102163.94;5042175;28;22093;-81
2022/06/12 00:17:43;;;;;;;10.07;3.30;;;;;;;12.81;82.99;102163.31;5042053;28;20033;-81
2022/06/12 00:20:11;;;;;;;8.93;3.00;;;;;;;12.79;81.77;102157.22;5042178;28;20086;-81
2022/06/12 00:22:37;;;;;;;7.17;3.40;;;;;;;12.77;82.09;102150.28;5042176;28;20498;-81
2022/06/12 00:25:04;;;;;;;8.00;3.33;;;;;;;12.81;80.40;102157.00;5042424;28;20067;-81
2022/06/12 00:27:29;;;;;;;9.70;3.63;;;;;;;12.68;82.63;102148.75;5041179;28;20051;-81
2022/06/12 00:29:56;;;;;;;6.13;3.30;;;;;;;12.65;83.22;102156.25;5041777;28;20037;-81
2022/06/12 00:32:21;;;;;;;9.87;3.57;;;;;;;12.69;83.83;102147.69;5041738;28;20159;-81
2022/06/12 00:34:52;;;;;;;8.07;3.60;;;;;;;12.69;83.48;102155.84;5024233;28;20113;-81
2022/06/12 00:37:21;;;;;;;8.77;3.53;;;;;;;12.66;84.78;102157.06;5042649;28;20041;-81
2022/06/12 00:39:49;;;;;;;8.03;3.40;;;;;;;12.64;84.32;102154.56;5022598;28;20071;-81
2022/06/12 00:42:30;;;;;;;8.40;3.73;;;;;;;12.61;84.14;102148.69;5041997;28;20033;-81
2022/06/12 00:44:59;;;;;;;10.77;3.53;;;;;;;12.66;82.96;102152.50;5024061;28;20044;-81
2022/06/12 00:47:26;;;;;;;11.90;3.57;;;;;;;12.64;82.65;102149.13;5041670;28;20033;-81
2022/06/12 00:49:51;;;;;;;12.53;3.57;;;;;;;12.63;82.61;102157.47;5041377;28;20037;-81
2022/06/12 00:52:25;;;;;;;8.77;3.60;;;;;;;12.62;81.93;102159.34;5042501;28;20031;-81
2022/06/12 00:54:59;;;;;;;12.02;3.72;;;;;;;12.60;81.85;102161.41;5041367;28;20032;-81
2022/06/12 00:57:26;;;;;;;9.35;3.58;;;;;;;12.59;81.81;102157.03;5023887;28;20472;-81
2022/06/12 00:59:56;;;;;;;10.17;3.33;;;;;;;12.53;81.77;102157.78;5041310;28;20110;-81
2022/06/12 01:02:26;;;;;;;9.50;3.53;;;;;;;12.45;81.57;102138.88;5040466;28;20044;-81
2022/06/12 01:07:40;;;;;;;11.55;3.70;;;;;;;12.44;81.84;102153.50;5041794;28;20059;-81
2022/06/12 01:10:09;;;;;;;11.30;3.73;;;;;;;12.49;81.68;102151.06;5023390;28;20037;-81
2022/06/12 01:12:43;;;;;;;9.00;3.63;;;;;;;12.45;81.99;102142.44;5041312;28;20134;-81
2022/06/12 01:15:14;;;;;;;11.98;3.53;;;;;;;12.54;81.81;102147.75;5041467;28;20444;-81
2022/06/12 01:17:40;;;;;;;11.87;4.00;;;;;;;12.51;83.44;102151.69;5041608;28;20085;-81
2022/06/12 01:20:09;;;;;;;9.53;3.63;;;;;;;12.45;84.66;102142.44;5041331;28;20116;-81
2022/06/12 01:22:44;;;;;;;9.47;3.63;;;;;;;12.45;83.76;102155.19;5040683;28;20438;-81
2022/06/12 01:25:17;;;;;;;;;;;;;;;12.59;81.57;102156.16;5041617;28;20314;-81
2022/06/12 01:27:56;;;;;;;11.67;3.70;;;;;;;12.43;82.12;102152.66;5041081;28;20398;-81
2022/06/12 01:30:33;;;;;;;12.90;4.13;;;;;;;12.30;82.67;102141.66;5041025;28;20337;-81
2022/06/12 01:33:09;;;;;;;12.63;3.90;;;;;;;12.39;82.05;102150.50;5041289;28;20028;-81
2022/06/12 01:35:41;;;;;;;13.30;4.30;;;;;;;12.37;81.52;102142.56;5041230;28;20047;-81
2022/06/12 01:38:23;;;;;;;12.30;4.00;;;;;;;12.41;81.65;102149.28;5041308;28;20487;-81
2022/06/12 01:41:00;;;;;;;13.37;4.23;;;;;;;12.39;81.73;102150.50;5040533;28;20056;-81
2022/06/12 01:43:42;;;;;;;13.13;4.20;;;;;;;12.39;81.84;102153.22;5040333;28;20367;-82
2022/06/12 01:46:21;;;;;;;13.13;3.83;;;;;;;12.31;82.41;102141.44;5041464;28;20742;-81
2022/06/12 01:49:41;;;;;;;11.63;4.30;;;;;;;12.37;82.08;102139.00;5041581;28;20035;-82
2022/06/12 01:52:44;;;;;;;11.50;4.10;;;;;;;12.36;82.42;102140.03;5042595;28;20049;-81
2022/06/12 01:55:20;;;;;;;11.77;4.20;;;;;;;12.29;83.57;102140.81;5044507;28;20051;-81
2022/06/12 01:58:14;;;;;;;12.93;4.20;;;;;;;12.26;83.71;102126.75;5044112;28;20496;-81
2022/06/12 02:00:45;;;;;;;15.23;4.88;;;;;;;12.29;83.62;102139.94;5031102;28;20052;-81
2022/06/12 02:03:22;;;;;;;16.07;5.47;;;;;;;12.26;83.43;102135.75;5045212;28;20041;-82
2022/06/12 02:05:53;;;;;;;16.50;5.77;;;;;;;12.18;84.55;102126.88;5044303;28;20052;-81
2022/06/12 02:08:22;;;;;;;14.20;4.63;;;;;;;12.15;85.31;102141.69;5045318;28;20071;-81
2022/06/12 02:13:10;;;;;;;12.83;4.70;;;;;;;12.15;84.88;102136.25;5044561;28;20438;-81
2022/06/12 02:13:47;;;;;;;13.07;4.67;;;;;;;12.14;84.94;102137.28;5044884;28;20040;-81
2022/06/12 02:16:28;;;;;;;13.03;4.60;;;;;;;12.08;84.66;102138.06;5044309;28;20353;-81
2022/06/12 02:18:57;;;;;;;11.63;4.67;;;;;;;12.04;85.04;102143.00;5044424;28;20039;-81
2022/06/12 02:21:28;;;;;;;12.30;4.27;;;;;;;12.06;85.67;102150.97;5044329;28;20460;-81
2022/06/12 02:24:02;;;;;;;10.17;4.30;;;;;;;11.98;85.48;102147.34;5044293;28;20107;-81
2022/06/12 02:26:40;;;;;;;12.27;4.95;;;;;;;11.98;85.61;102144.63;5043829;28;20480;-81
2022/06/12 02:29:18;;;;;;;18.00;5.30;;;;;;;11.95;85.86;102145.00;5044768;28;20033;-81
2022/06/12 02:31:46;;;;;;;15.47;5.47;;;;;;;11.93;86.09;102138.03;5044283;28;20036;-82
2022/06/12 02:34:24;;;;;;;12.33;4.70;;;;;;;11.92;86.29;102142.59;5044590;28;20036;-81
2022/06/12 02:36:56;;;;;;;14.37;5.17;;;;;;;11.85;86.37;102125.41;5044509;28;20037;-81
2022/06/12 02:39:31;;;;;;;12.30;5.10;;;;;;;11.94;86.12;102147.84;5042407;28;20086;-82
2022/06/12 02:42:12;;;;;;;15.07;5.10;;;;;;;11.94;85.98;102135.16;5026810;28;20621;-81
2022/06/12 02:44:46;;;;;;;15.63;4.83;;;;;;;11.87;85.76;102123.34;5044696;28;20037;-81
2022/06/12 02:47:18;;;;;;;11.83;4.57;;;;;;;11.91;85.18;102121.06;5044616;28;20036;-82
2022/06/12 02:49:47;;;;;;;14.40;4.93;;;;;;;11.92;85.32;102120.88;5044011;28;20477;-81
2022/06/12 02:52:22;;;;;;;14.13;4.40;;;;;;;11.98;84.80;102125.59;5044099;28;20548;-81
2022/06/12 02:55:29;;;;;;;14.67;4.70;;;;;;;11.98;85.26;102128.31;5044006;28;20090;-81
2022/06/12 02:58:09;;;;;;;14.00;4.97;;;;;;;11.96;85.16;102122.22;4982466;28;20046;-81
2022/06/12 03:01:01;;;;;;;13.60;4.63;;;;;;;12.04;84.17;102121.28;5036301;28;20459;-81
2022/06/12 03:03:51;;;;;;;12.60;4.43;;;;;;;12.07;84.33;102115.44;5025950;28;20133;-81
2022/06/12 03:06:18;;;;;;;14.87;4.97;;;;;;;12.09;84.03;102123.41;5043377;28;20119;-81
2022/06/12 03:08:49;;;;;;;15.90;4.50;;;;;;;12.10;84.57;102119.66;5043771;28;20121;-81
2022/06/12 03:11:25;;;;;;;15.73;4.73;;;;;;;12.10;84.15;102120.53;5042865;28;20095;-81
2022/06/12 03:13:53;;;;;;;11.20;4.47;;;;;;;12.10;84.51;102123.25;5043963;28;20036;-81
2022/06/12 03:16:23;;;;;;;15.67;4.70;;;;;;;12.08;84.68;102124.47;5043593;28;20116;-81
2022/06/12 03:18:58;;;;;;;9.80;4.30;;;;;;;12.03;84.81;102119.59;5044232;28;20028;-81
2022/06/12 03:22:10;;;;;;;12.48;4.82;;;;;;;12.08;84.68;102133.44;5042706;28;20044;-81
2022/06/12 03:25:03;;;;;;;13.53;4.73;;;;;;;12.05;85.08;102139.28;5004108;28;20076;-81
2022/06/12 03:28:00;;;;;;;13.53;4.90;;;;;;;12.03;84.92;102135.88;5042338;28;20044;-81
2022/06/12 03:30:33;;;;;;;13.43;4.63;;;;;;;12.04;85.15;102139.47;5024740;28;20103;-81
2022/06/12 03:33:32;;;;;;;15.45;4.68;;;;;;;12.05;85.13;102141.13;5043225;28;20048;-81
2022/06/12 03:36:14;;;;;;;15.10;4.93;;;;;;;11.99;85.62;102135.44;5043488;28;20341;-81
2022/06/12 03:38:47;;;;;;;12.00;4.83;;;;;;;11.99;86.14;102135.44;5043224;28;20499;-81
2022/06/12 03:41:25;;;;;;;16.63;4.97;;;;;;;11.99;86.35;102140.88;5043096;28;20088;-81
2022/06/12 03:44:07;;;;;;;15.90;5.40;;;;;;;12.02;86.37;102141.50;5041585;28;20048;-81
2022/06/12 03:46:59;;;;;;;14.20;5.20;;;;;;;12.00;86.52;102136.28;5042806;28;20037;-81
2022/06/12 03:49:38;;;;;;;15.13;5.40;;;;;;;11.96;86.42;102132.25;5042945;28;20044;-81
2022/06/12 03:52:15;;;;;;;17.83;5.50;;;;;;;11.97;86.44;102137.50;5042604;28;20625;-81
2022/06/12 03:54:50;;;;;;;14.40;5.40;;;;;;;11.99;86.63;102131.88;5042272;28;20483;-80
2022/06/12 04:00:17;;;;;;;15.30;5.33;;;;;;;11.98;86.74;102133.75;5042919;28;20095;-81
2022/06/12 04:02:46;;;;;;;16.83;5.43;;;;;;;11.93;86.90;102138.88;5042718;28;20040;-81
2022/06/12 04:05:19;;;;;;;14.83;5.47;;;;;;;11.96;86.98;102140.41;5042534;28;20068;-81
2022/06/12 04:07:48;;;;;;;16.20;5.38;;;;;;;11.96;87.07;102143.94;5042798;28;20041;-81
2022/06/12 04:10:20;;;;;;;15.63;5.43;;;;;;;11.96;86.97;102138.50;5043213;28;20468;-80
2022/06/12 04:12:46;;;;;;;15.20;5.33;;;;;;;11.95;86.86;102134.13;5042479;28;20052;-81
2022/06/12 04:15:17;;;;;;;16.23;5.60;;;;;;;11.98;87.23;102144.63;5024215;28;20448;-81
2022/06/12 04:17:43;;;;;;;14.87;5.40;;;;;;;12.01;86.35;102153.41;5042100;28;20040;-81
2022/06/12 04:20:37;;;;;;;21.30;6.33;;;;;;;12.01;86.65;102143.41;5042054;28;20078;-81
2022/06/12 04:23:09;;;;;;;15.77;5.70;;;;;;;12.02;86.77;102141.50;5042636;28;20519;-81
2022/06/12 04:25:41;;;;;;;16.80;5.70;;;;;;;12.02;86.76;102138.78;5042351;28;20029;-81
2022/06/12 04:28:27;;;;;;;16.43;5.63;;;;;;;12.06;86.93;102143.69;5042638;28;20041;-81
2022/06/12 04:30:53;;;;;;;14.47;6.10;;;;;;;12.07;86.61;102137.19;5041803;28;20039;-81
2022/06/12 04:33:32;;;;;;;15.63;5.53;;;;;;;12.12;86.86;102142.91;5042963;28;20058;-81
2022/06/12 04:36:00;;;;;;;16.57;5.77;;;;;;;12.10;86.43;102139.53;5041870;28;20031;-81
2022/06/12 04:38:28;;;;;;;15.07;5.80;;;;;;;12.11;85.88;102143.94;5040462;28;20025;-81
2022/06/12 04:40:55;;;;;;;15.07;5.77;;;;;;;12.18;86.24;102152.16;5040112;28;20055;-81
2022/06/12 04:43:21;;;;;;;18.37;6.13;;;;;;;12.18;85.08;102144.00;5042079;28;20493;-81
2022/06/12 04:45:48;;;;;;;15.53;5.67;;;;;;;12.28;85.75;102157.28;5041540;28;20269;-81
2022/06/12 04:48:49;;;;;;;17.80;5.70;;;;;;;12.29;85.87;102157.13;5041938;28;20032;-81
2022/06/12 04:51:15;;;;;;;16.13;5.67;;;;;;;12.36;85.29;102153.63;5006666;28;20045;-81
2022/06/12 04:53:43;;;;;;;15.93;5.83;;;;;;;12.37;85.11;102158.03;5042152;28;21998;-81
2022/06/12 04:56:09;;;;;;;17.23;5.70;;;;;;;12.41;85.37;102148.47;5023435;28;20032;-81
2022/06/12 04:58:36;;;;;;;17.63;6.03;;;;;;;12.45;85.18;102163.34;5041636;28;20055;-81
2022/06/12 05:01:02;;;;;;;15.77;6.93;;;;;;;12.51;84.96;102148.97;5023948;28;20044;-81
2022/06/12 05:03:28;;;;;;;17.03;7.97;;;;;;;12.56;84.30;102153.84;5041213;28;20040;-81
2022/06/12 05:05:54;;;;;;;30.17;15.93;;;;;;;12.61;83.49;102151.41;5040252;28;20476;-81
2022/06/12 05:08:19;;;;;;;38.97;19.63;;;;;;;12.68;84.35;102143.31;5041800;28;20037;-81
2022/06/12 05:10:46;;;;;;;48.20;28.83;;;;;;;12.71;84.45;102151.91;5041395;28;20032;-81
2022/06/12 05:13:11;;;;;;;85.90;48.77;;;;;;;12.78;84.92;102150.09;5041722;28;20750;-81
2022/06/12 05:15:37;;;;;;;105.20;57.40;;;;;;;12.78;84.11;102141.94;5039910;28;20488;-81
2022/06/12 05:18:03;;;;;;;95.73;51.27;;;;;;;12.84;83.35;102134.88;5040365;28;20044;-81
2022/06/12 05:20:31;;;;;;;72.77;40.23;;;;;;;12.96;82.91;102151.50;5026417;28;20052;-81
2022/06/12 05:22:57;;;;;;;69.00;38.20;;;;;;;13.02;83.36;102150.72;5041303;28;20033;-81
2022/06/12 05:25:23;;;;;;;61.57;32.13;;;;;;;13.09;83.11;102150.78;5041412;28;20047;-81
2022/06/12 05:27:50;;;;;;;61.87;32.70;;;;;;;13.15;82.13;102139.97;5041493;28;20380;-82
2022/06/12 05:30:20;;;;;;;63.30;32.93;;;;;;;13.22;82.28;102147.31;5041537;28;20048;-81
2022/06/12 05:32:47;;;;;;;65.60;35.47;;;;;;;13.28;82.44;102150.09;5041234;28;20021;-81
2022/06/12 05:35:13;;;;;;;76.00;38.60;;;;;;;13.27;81.43;102140.25;5041081;28;20605;-81
2022/06/12 05:37:39;;;;;;;72.00;35.80;;;;;;;13.42;81.43;102152.94;5040846;28;20039;-82
2022/06/12 05:40:10;;;;;;;69.53;33.23;;;;;;;13.47;81.07;102147.75;5040835;28;20032;-82
2022/06/12 05:42:38;;;;;;;63.93;32.80;;;;;;;13.59;81.43;102151.59;5041034;28;20097;-82
2022/06/12 05:45:06;;;;;;;48.93;24.60;;;;;;;13.60;80.75;102141.53;5041382;28;20369;-82
2022/06/12 05:47:32;;;;;;;48.87;23.53;;;;;;;13.71;81.02;102160.06;5022875;28;20650;-82
2022/06/12 05:49:58;;;;;;;40.97;19.70;;;;;;;13.77;81.05;102161.97;5041626;28;20046;-82
2022/06/12 05:52:24;;;;;;;38.03;16.07;;;;;;;13.89;82.17;102159.50;4994270;28;20028;-82
2022/06/12 05:54:49;;;;;;;31.63;12.67;;;;;;;13.97;81.35;102153.91;5042048;28;20124;-80
2022/06/12 05:57:14;;;;;;;23.97;8.67;;;;;;;13.97;80.96;102143.00;5041036;28;20047;-82
2022/06/12 05:59:40;;;;;;;30.13;11.60;;;;;;;14.19;81.25;102161.94;5041114;28;20516;-82
2022/06/12 06:02:06;;;;;;;25.13;9.53;;;;;;;14.26;81.62;102160.09;5022600;28;20465;-82
2022/06/12 06:04:32;;;;;;;27.50;11.00;;;;;;;14.37;80.75;102163.28;5040939;28;20045;-81
2022/06/12 06:06:59;;;;;;;24.17;9.50;;;;;;;14.45;80.60;102169.38;5022260;28;20497;-82
2022/06/12 06:09:25;;;;;;;26.00;9.73;;;;;;;14.52;80.57;102166.66;5041384;28;20033;-81
2022/06/12 06:11:50;;;;;;;22.43;8.70;;;;;;;14.62;80.77;102169.00;5040761;28;20494;-82
2022/06/12 06:14:16;;;;;;;20.20;8.20;;;;;;;14.67;80.05;102166.53;5041138;28;20033;-82
2022/06/12 06:16:42;;;;;;;26.13;8.20;;;;;;;14.71;80.34;102164.22;5041302;28;20041;-82
2022/06/12 06:19:09;;;;;;;24.33;8.40;;;;;;;14.80;80.33;102163.00;5041190;28;20036;-82
2022/06/12 06:21:34;;;;;;;18.10;8.23;;;;;;;14.92;80.83;102166.78;5040365;28;20492;-81
2022/06/12 06:24:00;;;;;;;24.07;8.43;;;;;;;14.87;80.66;102158.38;5041175;28;20047;-82
2022/06/12 06:26:25;;;;;;;21.83;8.60;;;;;;;15.06;82.29;102169.53;5040212;28;20041;-81
2022/06/12 06:28:52;;;;;;;22.03;8.23;;;;;;;15.13;81.12;102178.53;5041331;28;20036;-82
2022/06/12 06:31:19;;;;;;;22.47;7.70;;;;;;;15.12;80.39;102174.13;5040478;28;20383;-81
2022/06/12 06:33:44;;;;;;;23.87;8.07;;;;;;;15.31;81.64;102180.63;5041047;28;20044;-81
2022/06/12 06:36:11;;;;;;;23.20;8.57;;;;;;;15.28;80.70;102186.53;5039883;28;20491;-81
2022/06/12 06:38:38;;;;;;;20.47;8.50;;;;;;;15.40;80.50;102189.47;5043273;28;20045;-82
2022/06/12 06:41:03;;;;;;;23.33;8.90;;;;;;;15.46;79.80;102180.41;5043286;28;20391;-82
2022/06/12 06:43:29;;;;;;;24.80;9.70;;;;;;;15.71;82.23;102180.59;5044271;28;20044;-81
2022/06/12 06:48:38;;;;;;;21.42;8.05;;;;;;;15.97;78.79;102190.63;5044138;28;20142;-81
2022/06/12 06:51:04;;;;;;;26.83;8.03;;;;;;;16.02;78.89;102188.09;5043569;28;20041;-81
2022/06/12 06:53:29;;;;;;;19.50;6.67;;;;;;;16.00;78.06;102194.84;5025668;28;20394;-81
2022/06/12 06:55:54;;;;;;;21.57;6.70;;;;;;;16.08;77.49;102191.84;5044030;28;20054;-82
2022/06/12 06:58:23;;;;;;;18.73;6.73;;;;;;;16.30;81.31;102191.56;5043612;28;20037;-81
2022/06/12 07:00:50;;;;;;;18.73;6.57;;;;;;;16.27;76.85;102201.03;5043788;28;20151;-81
2022/06/12 07:03:15;;;;;;;25.10;6.80;;;;;;;16.36;78.04;102197.00;5043557;28;20044;-81
2022/06/12 07:05:43;;;;;;;17.87;6.13;;;;;;;16.42;77.15;102195.28;5042960;28;20056;-82
2022/06/12 07:08:09;;;;;;;19.47;6.50;;;;;;;16.41;75.84;102190.03;5043144;28;20037;-82
2022/06/12 07:10:36;;;;;;;18.73;6.10;;;;;;;16.51;75.21;102191.25;5043264;28;20090;-82
2022/06/12 07:13:01;;;;;;;18.90;6.50;;;;;;;16.66;76.83;102188.22;5043920;28;20029;-82
2022/06/12 07:15:29;;;;;;;21.23;5.90;;;;;;;16.73;75.57;102193.66;5025469;28;20071;-81
2022/06/12 07:17:54;;;;;;;18.23;5.80;;;;;;;16.64;74.63;102193.06;5043987;28;20047;-82
2022/06/12 07:20:24;;;;;;;18.73;5.50;;;;;;;16.60;74.05;102199.19;5043567;28;20033;-82
2022/06/12 07:22:50;;;;;;;22.10;6.63;;;;;;;16.62;74.81;102197.06;5043013;28;20025;-82
2022/06/12 07:25:16;;;;;;;20.07;6.43;;;;;;;16.66;75.26;102199.16;5025483;28;20064;-81
2022/06/12 07:27:44;;;;;;;19.00;5.80;;;;;;;16.85;75.93;102197.38;5042842;28;20524;-82
2022/06/12 07:30:13;;;;;;;22.70;6.30;;;;;;;16.83;73.58;102204.09;5044303;28;21076;-81
2022/06/12 07:32:39;;;;;;;18.30;6.60;;;;;;;16.90;72.72;102202.19;5042699;28;20074;-82
2022/06/12 07:35:05;;;;;;;20.23;6.20;;;;;;;17.01;73.33;102201.50;5043863;28;20036;-82
2022/06/12 07:37:34;;;;;;;20.63;6.43;;;;;;;17.10;74.44;102193.84;5042308;28;20044;-81
2022/06/12 07:40:00;;;;;;;19.53;6.07;;;;;;;17.38;73.33;102206.25;5043726;28;20080;-82
2022/06/12 07:42:26;;;;;;;19.83;5.87;;;;;;;17.33;73.53;102201.44;5042440;28;20556;-82
2022/06/12 07:44:51;;;;;;;19.77;6.00;;;;;;;17.26;71.79;102189.72;5043071;28;20108;-82
2022/06/12 07:47:17;;;;;;;17.00;5.90;;;;;;;17.33;71.35;102206.91;5043357;28;20649;-81
2022/06/12 07:49:42;;;;;;;18.17;6.37;;;;;;;17.37;71.96;102207.31;5042333;28;20033;-82
2022/06/12 07:52:09;;;;;;;17.33;6.17;;;;;;;17.45;72.34;102201.56;5042709;28;20041;-82
2022/06/12 07:54:36;;;;;;;18.43;6.10;;;;;;;17.59;72.60;102213.22;5042049;28;20423;-83
2022/06/12 07:57:03;;;;;;;19.37;6.63;;;;;;;17.64;71.58;102207.06;5042779;28;20048;-82
2022/06/12 07:59:29;;;;;;;19.43;6.00;;;;;;;17.65;69.91;102201.38;5040537;28;20128;-82
2022/06/12 08:01:54;;;;;;;22.10;6.40;;;;;;;17.61;70.05;102200.16;5042937;28;20033;-83
2022/06/12 08:04:21;;;;;;;21.10;6.07;;;;;;;17.64;71.40;102207.91;5019548;28;19921;-82
2022/06/12 08:06:47;;;;;;;20.53;6.30;;;;;;;17.88;70.98;102208.06;5055046;28;20074;-82
2022/06/12 08:09:13;;;;;;;20.40;6.03;;;;;;;17.94;70.18;102206.34;5047091;28;20036;-81
2022/06/12 08:11:41;;;;;;;17.83;5.97;;;;;;;17.96;70.18;102206.97;5040631;28;20102;-82
2022/06/12 08:14:07;;;;;;;18.10;5.70;;;;;;;17.92;68.64;102205.75;5046318;28;20028;-82
2022/06/12 08:16:34;;;;;;;19.60;5.13;;;;;;;17.95;69.39;102208.03;5055167;28;20107;-82
2022/06/12 08:19:00;;;;;;;20.23;5.60;;;;;;;17.86;68.86;102199.25;5063309;28;20031;-81
2022/06/12 08:21:26;;;;;;;19.33;4.93;;;;;;;18.01;69.50;102204.38;5068372;28;20033;-82
2022/06/12 08:23:58;;;;;;;18.53;5.10;;;;;;;18.11;69.49;102203.84;5055135;28;20368;-81
2022/06/12 08:26:26;;;;;;;14.80;4.47;;;;;;;18.07;67.64;102197.16;5046989;28;20091;-82
2022/06/12 08:28:56;;;;;;;15.30;4.18;;;;;;;18.03;68.18;102196.75;5047879;28;20139;-82
2022/06/12 08:31:28;;;;;;;15.53;4.80;;;;;;;17.97;68.47;102198.50;5032252;28;20052;-83
2022/06/12 08:33:58;;;;;;;18.60;4.97;;;;;;;18.04;66.66;102202.00;5041647;28;20017;-82
2022/06/12 08:36:24;;;;;;;17.33;4.50;;;;;;;18.14;65.58;102198.75;5062173;28;20086;-82
2022/06/12 08:38:50;;;;;;;17.63;5.10;;;;;;;18.56;67.39;102204.31;5050057;28;20036;-82
2022/06/12 08:41:53;;;;;;;19.20;5.37;;;;;;;18.85;66.31;102204.53;5047216;28;20036;-82
2022/06/12 08:44:51;;;;;;;18.35;4.95;;;;;;;19.02;65.44;102195.66;5046992;28;20029;-83
2022/06/12 08:47:26;;;;;;;19.90;5.13;;;;;;;19.30;66.22;102197.72;5051873;28;20035;-83
2022/06/12 08:50:10;;;;;;;18.42;5.05;;;;;;;19.62;64.84;102202.84;5050505;28;20116;-82
2022/06/12 08:53:02;;;;;;;16.47;4.60;;;;;;;19.71;64.90;102193.16;5053981;28;20045;-83
2022/06/12 08:55:43;;;;;;;18.67;5.03;;;;;;;19.84;63.69;102191.25;5053461;28;20028;-83
2022/06/12 08:58:13;;;;;;;14.05;4.43;;;;;;;20.10;62.30;102180.81;5052135;28;20029;-82
2022/06/12 09:00:39;;;;;;;13.50;4.40;;;;;;;19.95;59.52;102184.94;5058458;28;20487;-83
2022/06/12 09:03:08;;;;;;;13.82;3.92;;;;;;;20.06;60.74;102181.31;5051629;28;20112;-83
2022/06/12 09:05:59;;;;;;;15.00;3.83;;;;;;;20.52;60.87;102189.66;5045605;28;20546;-82
2022/06/12 09:08:28;;;;;;;13.93;4.47;;;;;;;20.53;58.20;102190.47;5026407;28;20028;-83
2022/06/12 09:11:01;;;;;;;11.88;3.65;;;;;;;20.84;58.59;102191.06;5046705;28;20531;-82
2022/06/12 09:13:31;;;;;;;14.20;3.88;;;;;;;20.77;54.78;102179.34;5063275;28;20028;-83
2022/06/12 09:16:17;;;;;;;14.60;3.67;;;;;;;21.03;55.89;102189.75;5048390;28;20041;-83
2022/06/12 09:19:03;;;;;;;14.20;3.80;;;;;;;21.24;56.07;102187.31;5052487;28;20036;-82
2022/06/12 09:21:47;;;;;;;13.30;3.63;;;;;;;21.36;55.88;102174.28;5052230;28;20064;-81
2022/06/12 09:24:27;;;;;;;10.02;3.22;;;;;;;21.25;54.26;102183.47;5041165;28;20538;-82
2022/06/12 09:27:28;;;;;;;10.57;4.00;;;;;;;21.12;55.31;102172.78;5040757;28;20119;-83
2022/06/12 09:30:14;;;;;;;9.98;2.90;;;;;;;21.06;52.20;102183.72;4984040;28;20054;-83
2022/06/12 09:32:49;;;;;;;12.25;3.40;;;;;;;21.01;52.01;102180.91;5039559;28;20044;-82
2022/06/12 09:35:28;;;;;;;12.02;3.13;;;;;;;20.97;52.43;102163.22;5047394;28;20375;-82
2022/06/12 09:38:21;;;;;;;10.13;3.35;;;;;;;20.98;52.34;102186.91;5048683;28;20040;-82
2022/06/12 09:41:00;;;;;;;11.02;3.28;;;;;;;20.81;52.23;102172.28;5057033;28;20024;-83
2022/06/12 09:43:49;;;;;;;15.40;3.83;;;;;;;20.94;55.79;102182.16;5054406;28;20539;-81
2022/06/12 09:46:36;;;;;;;9.63;3.17;;;;;;;20.56;52.95;102177.06;5037878;28;21440;-81
2022/06/12 09:49:20;;;;;;;12.80;3.45;;;;;;;20.55;53.41;102177.31;5040820;28;20045;-82
2022/06/12 09:52:17;;;;;;;13.63;3.47;;;;;;;20.76;57.09;102172.19;5040850;28;20481;-82
2022/06/12 09:55:06;;;;;;;11.73;3.35;;;;;;;20.99;54.12;102177.56;5033118;28;20044;-83
2022/06/12 09:57:32;;;;;;;13.30;3.65;;;;;;;20.92;54.47;102174.13;5040563;28;20032;-82
2022/06/12 10:00:32;;;;;;;11.43;3.25;;;;;;;21.11;52.23;102179.41;5041548;28;20472;-82
2022/06/12 10:03:07;;;;;;;10.23;2.90;;;;;;;20.98;51.68;102173.13;4976999;28;20181;-82
2022/06/12 10:05:38;;;;;;;11.88;3.15;;;;;;;20.81;50.93;102170.38;5031181;28;20174;-82
2022/06/12 10:08:31;;;;;;;11.10;3.33;;;;;;;20.99;52.67;102169.28;5041645;28;20118;-82
2022/06/12 10:11:05;;;;;;;13.23;3.15;;;;;;;20.84;52.85;102160.78;5041445;28;20119;-82
2022/06/12 10:13:38;;;;;;;9.85;3.47;;;;;;;20.97;55.21;102171.47;5044200;28;20095;-82
2022/06/12 10:16:13;;;;;;;14.25;3.67;;;;;;;20.66;53.39;102157.13;5044833;28;20656;-82
2022/06/12 10:18:45;;;;;;;13.48;3.92;;;;;;;20.32;54.89;102161.72;5044841;28;20373;-82
2022/06/12 10:21:15;;;;;;;12.13;3.72;;;;;;;20.16;55.62;102166.91;5043117;28;20408;-82
2022/06/12 10:23:41;;;;;;;14.00;4.05;;;;;;;20.12;58.11;102162.16;5044192;28;20122;-82
2022/06/12 10:26:33;;;;;;;15.15;3.80;;;;;;;20.31;56.66;102171.88;5046501;28;20044;-81
2022/06/12 10:29:09;;;;;;;11.23;4.20;;;;;;;20.33;56.58;102163.38;5051551;28;20473;-83
2022/06/12 10:31:47;;;;;;;15.30;3.80;;;;;;;20.36;55.44;102158.22;5043461;28;20446;-82
2022/06/12 10:34:23;;;;;;;14.90;3.72;;;;;;;20.40;56.08;102164.91;5043293;28;20051;-83
2022/06/12 10:36:49;;;;;;;12.77;3.40;;;;;;;20.46;53.25;102165.03;5043536;28;20041;-82
2022/06/12 10:39:26;;;;;;;9.40;2.97;;;;;;;20.61;53.56;102157.03;5042828;28;20071;-82
2022/06/12 10:41:55;;;;;;;9.45;3.20;;;;;;;20.81;55.51;102155.78;5025781;28;20029;-83
2022/06/12 10:44:34;;;;;;;8.63;3.10;;;;;;;20.99;52.23;102150.00;5042448;28;20043;-82
2022/06/12 10:47:10;;;;;;;10.85;3.13;;;;;;;21.26;51.27;102160.34;5043254;28;20087;-81
2022/06/12 10:49:36;;;;;;;8.52;2.83;;;;;;;21.06;50.43;102160.84;5050840;28;20031;-82
2022/06/12 10:52:15;;;;;;;13.68;2.90;;;;;;;20.97;51.68;102151.34;5053856;28;20037;-81
2022/06/12 10:54:41;;;;;;;12.70;3.10;;;;;;;21.06;52.52;102152.59;5053298;28;20028;-83
2022/06/12 10:57:14;;;;;;;9.73;3.17;;;;;;;21.32;52.70;102156.56;5054687;28;20044;-81
2022/06/12 10:59:51;;;;;;;9.35;2.88;;;;;;;21.49;51.67;102147.47;5042208;28;20112;-81
2022/06/12 11:02:38;;;;;;;9.90;2.70;;;;;;;21.48;50.91;102151.31;5042446;28;20029;-82
2022/06/12 11:05:44;;;;;;;9.30;3.00;;;;;;;21.53;50.65;102141.19;5042285;28;20056;-82
2022/06/12 11:08:25;;;;;;;10.88;3.10;;;;;;;21.73;52.21;102139.81;5040345;28;20109;-82
2022/06/12 11:10:59;;;;;;;10.68;3.00;;;;;;;21.85;51.41;102134.16;5043695;28;20397;-82
2022/06/12 11:13:27;;;;;;;;;;;;;;;22.28;50.38;102148.19;5042706;28;20036;-83
2022/06/12 11:16:08;;;;;;;11.95;3.35;;;;;;;21.62;48.97;102141.59;5042824;28;19925;-81
2022/06/12 11:18:56;;;;;;;10.18;3.10;;;;;;;21.50;49.80;102143.59;5026124;28;20039;-82
2022/06/12 11:21:29;;;;;;;9.80;2.90;;;;;;;21.58;49.21;102133.00;5042344;28;20056;-83
2022/06/12 11:23:54;;;;;;;12.23;2.90;;;;;;;21.61;48.33;102128.91;5041829;28;21445;-82
2022/06/12 11:26:42;;;;;;;10.73;3.58;;;;;;;21.66;49.44;102126.19;5042565;28;20045;-83
2022/06/12 11:29:28;;;;;;;11.65;2.92;;;;;;;21.90;50.40;102131.47;5042031;28;20535;-82
2022/06/12 11:32:00;;;;;;;7.88;2.70;;;;;;;21.87;51.12;102132.00;5042345;28;20451;-82
2022/06/12 11:34:31;;;;;;;12.75;3.38;;;;;;;21.99;50.92;102129.94;5042207;28;20164;-82
2022/06/12 11:36:59;;;;;;;9.80;2.90;;;;;;;21.79;48.98;102132.44;5043645;28;20166;-82
2022/06/12 11:39:40;;;;;;;9.32;2.97;;;;;;;21.98;52.16;102133.78;5041235;28;20036;-83
2022/06/12 11:42:18;;;;;;;10.32;3.28;;;;;;;21.73;51.14;102121.34;5041651;28;20389;-82
2022/06/12 11:45:02;;;;;;;8.50;2.95;;;;;;;21.48;51.12;102134.75;5041943;28;20037;-82
2022/06/12 11:47:40;;;;;;;15.93;3.55;;;;;;;21.10;54.19;102117.94;5042143;28;20399;-82
2022/06/12 11:50:29;;;;;;;11.05;3.15;;;;;;;21.01;53.85;102127.69;5042028;28;20346;-82
2022/06/12 11:53:04;;;;;;;10.93;2.97;;;;;;;20.88;55.01;102129.72;5022962;28;20067;-82